Terminal Aerodrome Forecast
Issued by NWS Atlanta, GA

Home | Current Version | Previous Version | Text Only | Print | Product List | Glossary On
Versions: 1 2 3 4 5 6 7 8 9 10 11 12 13 14 15 16
000
FTUS42 KFFC 100500
TAFMCN
TAF
KMCN 100528Z 1006/1106 25003KT P6SM BKN200
     FM100800 23003KT P6SM SCT025
     FM101800 22005KT P6SM VCSH BKN040 PROB30 1018/1023 3SM TSRA BR
      BKN040CB
     FM110200 21005KT P6SM SCT035=

USA.gov is the U.S. government's official web portal to all federal, state and local government web resources and services.